首页
METAR-TAF:

METAR-TAF

机场 :

布拉茨克, 俄罗斯

纬度: 56-22-15N, 经度: 101-41-55E, 海拔: 490米

当前天气观测

该预报发布于44分钟前的09:00 UTC
风速12节,风向西转西南,在西转西北之间变化
温度 28°C
湿度 30%
气压 1001 hPa
能见度10公里或以上

METAR: UIBB 160900Z 25006MPS 190V300 9999 NSC 28/09 Q1001 R30/CLRD60 NOSIG RMK QFE708/0945

时间: 17:44 (09:44 UTC)

预报

该预报发布于1小时和44分钟前的08:00 UTC
预报有效从16日的 09点(UTC)到 17日的 09点(UTC)
风速10节,风向西转西南,有时为19节阵风
能见度10公里或以上
散云层高于5000英尺, 积雨云.
短暂存在
从 16日的 09点(UTC)到 16日的 18点(UTC)
风速14节,风向西转西北,有时为29节阵风
雷暴, 小雨
成为
从 16日的 18点(UTC)到 16日的 21点(UTC)
风速10节,风向西转西北,有时为19节阵风
几率 40% :
短暂存在
从 16日的 21点(UTC)到 17日的 03点(UTC)
雷暴, 小雨
成为
从 17日的 03点(UTC)到 17日的 06点(UTC)
风速10节,风向,有时为19节阵风

TAF: UIBB 160800Z 1609/1709 24005G10MPS 9999 SCT050CB TEMPO 1609/1618 30007G15MPS -TSRA BECMG 1618/1621 30005G10MPS PROB40 TEMPO 1621/1703 -TSRA BECMG 1703/1706 36005G10MPS

超过4000个机场的气象观测和天气预报(METAR&TAF报告)。

可查询的气象台以黄色和红色小点在地图上表示。

将鼠标移到小点上方,可查看气象台名称。

然后点击查看天气观测和预报。

如需切换地图:点击带黑十字的绿色按钮放大地图;点击带横线的绿色按钮缩小地图;或者点击绿色箭头查看邻近地区的地图。


METAR-TAF: